createdAt,value
2023-03-28T00:01:08.331Z,5.80
2023-03-28T00:03:40.093Z,5.80
2023-03-28T00:06:11.237Z,5.80
2023-03-28T00:08:40.662Z,5.80
2023-03-28T00:11:10.790Z,5.80
2023-03-28T00:13:39.663Z,5.80
2023-03-28T00:16:10.392Z,5.80
2023-03-28T00:18:39.224Z,5.80
2023-03-28T00:21:19.735Z,5.80
2023-03-28T00:23:52.255Z,5.80
2023-03-28T00:26:20.975Z,5.80
2023-03-28T00:28:49.328Z,5.80
2023-03-28T00:31:17.562Z,5.70
2023-03-28T00:33:47.544Z,5.70
2023-03-28T00:36:22.774Z,5.70
2023-03-28T00:38:52.279Z,5.70
2023-03-28T00:41:21.903Z,5.70
2023-03-28T00:43:52.218Z,5.70
2023-03-28T00:46:26.396Z,5.70
2023-03-28T00:48:58.967Z,5.80
2023-03-28T00:51:32.890Z,5.80
2023-03-28T00:54:04.860Z,5.80
2023-03-28T00:56:34.885Z,5.80
2023-03-28T00:59:08.002Z,5.80
2023-03-28T01:01:37.048Z,5.80
2023-03-28T01:04:07.009Z,5.80
2023-03-28T01:06:40.502Z,5.80
2023-03-28T01:09:10.718Z,5.80
2023-03-28T01:11:41.909Z,5.80
2023-03-28T01:14:13.291Z,5.80
2023-03-28T01:16:43.072Z,5.80
2023-03-28T01:19:26.670Z,5.80
2023-03-28T01:22:32.235Z,5.80
2023-03-28T01:25:21.511Z,5.90
2023-03-28T01:27:53.400Z,5.80
2023-03-28T01:30:27.447Z,5.80
2023-03-28T01:33:28.800Z,5.80
2023-03-28T01:36:36.584Z,5.80
2023-03-28T01:39:12.889Z,5.90
2023-03-28T01:41:47.212Z,5.90
2023-03-28T01:44:25.924Z,5.90
2023-03-28T01:47:01.186Z,5.90
2023-03-28T01:49:35.964Z,5.90
2023-03-28T01:52:11.784Z,5.90
2023-03-28T01:54:45.899Z,5.80
2023-03-28T01:57:20.444Z,5.80
2023-03-28T01:59:51.999Z,5.80
2023-03-28T02:02:27.384Z,5.80
2023-03-28T02:04:58.301Z,5.80
2023-03-28T02:07:28.873Z,5.80
2023-03-28T02:09:59.442Z,5.80
2023-03-28T02:12:32.962Z,5.80
2023-03-28T02:15:05.649Z,5.70
2023-03-28T02:17:39.124Z,5.70
2023-03-28T02:20:12.152Z,5.70
2023-03-28T02:22:47.977Z,5.70
2023-03-28T02:25:18.474Z,5.70
2023-03-28T02:27:48.757Z,5.70
2023-03-28T02:30:17.803Z,5.60
2023-03-28T02:32:50.622Z,5.60
2023-03-28T02:35:24.366Z,5.60
2023-03-28T02:37:58.786Z,5.60
2023-03-28T02:40:38.500Z,5.60
2023-03-28T02:43:38.916Z,5.60
2023-03-28T02:46:20.961Z,5.60
2023-03-28T02:48:56.562Z,5.60
2023-03-28T02:51:34.817Z,5.50
2023-03-28T02:54:17.443Z,5.50
2023-03-28T02:56:53.331Z,5.50
2023-03-28T02:59:28.570Z,5.50
2023-03-28T03:01:56.939Z,5.50
2023-03-28T03:04:25.250Z,5.50
2023-03-28T03:06:53.532Z,5.50
2023-03-28T03:09:23.096Z,5.50
2023-03-28T03:11:52.663Z,5.50
2023-03-28T03:14:21.058Z,5.50
2023-03-28T03:16:51.714Z,5.50
2023-03-28T03:19:20.036Z,5.50
2023-03-28T03:21:49.638Z,5.50
2023-03-28T03:24:17.859Z,5.50
2023-03-28T03:26:46.645Z,5.50
2023-03-28T03:29:16.718Z,5.50
2023-03-28T03:31:44.980Z,5.50
2023-03-28T03:34:13.206Z,5.50
2023-03-28T03:36:42.763Z,5.50
2023-03-28T03:39:11.174Z,5.50
2023-03-28T03:41:39.417Z,5.50
2023-03-28T03:44:08.044Z,5.50
2023-03-28T03:46:37.829Z,5.40
2023-03-28T03:49:06.307Z,5.40
2023-03-28T03:51:34.529Z,5.40
2023-03-28T03:54:02.797Z,5.30
2023-03-28T03:56:31.056Z,5.30
2023-03-28T03:58:59.892Z,5.30
2023-03-28T04:01:30.294Z,5.30
2023-03-28T04:04:00.124Z,5.30
2023-03-28T04:06:29.637Z,5.30
2023-03-28T04:08:58.023Z,5.20
2023-03-28T04:11:26.295Z,5.20
2023-03-28T04:13:54.475Z,5.20
2023-03-28T04:16:24.131Z,5.20
2023-03-28T04:18:52.934Z,5.30
2023-03-28T04:21:27.660Z,5.30
2023-03-28T04:23:56.451Z,5.30
2023-03-28T04:26:27.118Z,5.30
2023-03-28T04:28:56.246Z,5.20
2023-03-28T04:31:29.866Z,5.20
2023-03-28T04:34:00.586Z,5.20
2023-03-28T04:36:30.336Z,5.20
2023-03-28T04:39:02.834Z,5.20
2023-03-28T04:41:32.345Z,5.20
2023-03-28T04:44:01.119Z,5.20
2023-03-28T04:46:30.054Z,5.20
2023-03-28T04:48:58.394Z,5.20
2023-03-28T04:51:28.720Z,5.20
2023-03-28T04:53:58.397Z,5.20
2023-03-28T04:56:27.182Z,5.20
2023-03-28T04:58:55.958Z,5.20
2023-03-28T05:01:25.990Z,5.20
2023-03-28T05:03:54.815Z,5.10
2023-03-28T05:06:25.967Z,5.10
2023-03-28T05:08:54.168Z,5.10
2023-03-28T05:11:23.853Z,5.10
2023-03-28T05:13:52.051Z,5.00
2023-03-28T05:16:20.587Z,5.00
2023-03-28T05:18:48.867Z,5.00
2023-03-28T05:21:17.064Z,5.00
2023-03-28T05:23:51.550Z,4.90
2023-03-28T05:26:20.542Z,4.90
2023-03-28T05:28:50.255Z,4.90
2023-03-28T05:31:18.697Z,4.90
2023-03-28T05:33:47.008Z,4.80
2023-03-28T05:36:15.214Z,4.80
2023-03-28T05:38:43.436Z,4.90
2023-03-28T05:41:11.717Z,4.80
2023-03-28T05:43:39.889Z,4.80
2023-03-28T05:46:10.210Z,4.80
2023-03-28T05:48:38.736Z,4.80
2023-03-28T05:51:07.462Z,4.80
2023-03-28T05:53:35.839Z,4.80
2023-03-28T05:56:04.377Z,4.80
2023-03-28T05:58:32.605Z,4.80
2023-03-28T06:01:02.708Z,4.80
2023-03-28T06:03:32.825Z,4.80
2023-03-28T06:06:01.911Z,4.90
2023-03-28T06:08:30.170Z,4.90
2023-03-28T06:11:02.495Z,5.00
2023-03-28T06:13:31.362Z,5.00
2023-03-28T06:15:59.600Z,5.10
2023-03-28T06:18:27.878Z,5.10
2023-03-28T06:20:58.066Z,5.10
2023-03-28T06:23:26.612Z,5.10
2023-03-28T06:25:54.852Z,5.20
2023-03-28T06:28:23.080Z,5.20
2023-03-28T06:30:52.047Z,5.20
2023-03-28T06:33:20.464Z,5.30
2023-03-28T06:35:48.762Z,5.30
2023-03-28T06:38:18.629Z,5.30
2023-03-28T06:40:47.176Z,5.40
2023-03-28T06:43:15.394Z,5.50
2023-03-28T06:45:43.646Z,5.50
2023-03-28T06:48:12.011Z,5.50
2023-03-28T06:50:40.215Z,5.60
2023-03-28T06:53:08.434Z,5.60
2023-03-28T06:55:38.078Z,5.70
2023-03-28T06:58:06.759Z,5.70
2023-03-28T07:00:35.114Z,5.70
2023-03-28T07:03:03.574Z,5.70
2023-03-28T07:05:31.862Z,5.80
2023-03-28T07:08:00.248Z,5.80
2023-03-28T07:10:28.433Z,5.90
2023-03-28T07:12:58.090Z,5.90
2023-03-28T07:15:26.283Z,6.00
2023-03-28T07:17:54.637Z,6.00
2023-03-28T07:20:23.521Z,6.10
2023-03-28T07:22:52.147Z,6.10
2023-03-28T07:25:21.527Z,6.20
2023-03-28T07:27:50.224Z,6.20
2023-03-28T07:30:20.014Z,6.30
2023-03-28T07:32:56.715Z,6.30
2023-03-28T07:35:28.259Z,6.40
2023-03-28T07:37:56.512Z,6.40
2023-03-28T07:40:24.744Z,6.40
2023-03-28T07:42:53.025Z,6.40
2023-03-28T07:45:22.677Z,6.50
2023-03-28T07:47:50.849Z,6.50
2023-03-28T07:50:20.122Z,6.60
2023-03-28T07:52:48.391Z,6.70
2023-03-28T07:55:17.253Z,6.70
2023-03-28T07:57:46.565Z,6.90
2023-03-28T08:00:17.381Z,7.00
2023-03-28T08:02:47.152Z,7.10
2023-03-28T08:05:15.590Z,7.10
2023-03-28T08:07:46.061Z,7.20
2023-03-28T08:10:15.206Z,7.30
2023-03-28T08:12:43.810Z,7.30
2023-03-28T08:15:12.791Z,7.30
2023-03-28T08:17:41.175Z,7.40
2023-03-28T08:20:12.236Z,7.40
2023-03-28T08:22:41.220Z,7.40
2023-03-28T08:25:10.492Z,7.40
2023-03-28T08:27:38.811Z,7.40
2023-03-28T08:30:08.443Z,7.40
2023-03-28T08:32:36.973Z,7.40
2023-03-28T08:35:07.004Z,7.50
2023-03-28T08:37:36.622Z,7.60
2023-03-28T08:40:10.407Z,7.70
2023-03-28T08:43:08.057Z,7.80
2023-03-28T08:45:46.622Z,7.80
2023-03-28T08:48:22.373Z,7.90
2023-03-28T08:50:54.501Z,7.90
2023-03-28T08:53:30.466Z,8.00
2023-03-28T08:56:00.178Z,8.00
2023-03-28T08:58:38.780Z,8.10
2023-03-28T09:01:09.731Z,8.20
2023-03-28T09:03:38.141Z,8.30
2023-03-28T09:06:16.260Z,8.40
2023-03-28T09:08:59.395Z,8.70
2023-03-28T09:11:39.321Z,9.20
2023-03-28T09:14:25.394Z,9.60
2023-03-28T09:17:07.452Z,10.00
2023-03-28T09:19:47.708Z,10.20
2023-03-28T09:22:26.062Z,10.20
2023-03-28T09:25:17.701Z,10.20
2023-03-28T09:27:54.253Z,10.20
2023-03-28T09:30:26.655Z,10.10
2023-03-28T09:32:58.409Z,10.00
2023-03-28T09:35:29.125Z,9.90
2023-03-28T09:38:02.335Z,9.90
2023-03-28T09:40:33.150Z,9.90
2023-03-28T09:43:07.707Z,9.90
2023-03-28T09:45:49.758Z,9.80
2023-03-28T09:48:22.172Z,9.80
2023-03-28T09:50:50.681Z,9.80
2023-03-28T09:53:23.895Z,9.80
2023-03-28T09:56:04.492Z,9.80
2023-03-28T09:58:49.349Z,9.70
2023-03-28T10:01:33.284Z,9.60
2023-03-28T10:04:02.395Z,9.60
2023-03-28T10:06:32.701Z,9.60
2023-03-28T10:09:17.017Z,9.50
2023-03-28T10:11:49.949Z,9.50
2023-03-28T10:14:35.467Z,9.50
2023-03-28T10:17:06.261Z,9.50
2023-03-28T10:19:37.169Z,9.40
2023-03-28T10:22:12.254Z,9.40
2023-03-28T10:24:41.504Z,9.50
2023-03-28T10:27:18.328Z,9.60
2023-03-28T10:29:48.168Z,9.60
2023-03-28T10:32:26.142Z,9.70
2023-03-28T10:35:02.804Z,9.80
2023-03-28T10:37:33.258Z,9.90
2023-03-28T10:40:05.561Z,10.00
2023-03-28T10:42:46.381Z,10.10
2023-03-28T10:45:23.914Z,10.30
2023-03-28T10:47:56.006Z,10.40
2023-03-28T10:50:28.617Z,10.40
2023-03-28T10:53:14.831Z,10.60
2023-03-28T10:55:52.417Z,10.60
2023-03-28T10:58:31.792Z,10.70
2023-03-28T11:01:05.484Z,10.70
2023-03-28T11:03:47.067Z,10.70
2023-03-28T11:06:21.885Z,10.70
2023-03-28T11:09:01.890Z,10.70
2023-03-28T11:11:52.287Z,10.70
2023-03-28T11:14:34.189Z,10.60
2023-03-28T11:17:08.876Z,10.60
2023-03-28T11:19:53.296Z,10.60
2023-03-28T11:22:28.913Z,10.50
2023-03-28T11:25:09.520Z,10.50
2023-03-28T11:27:43.375Z,10.50
2023-03-28T11:30:17.642Z,10.60
2023-03-28T11:32:50.335Z,10.50
2023-03-28T11:35:26.616Z,10.60
2023-03-28T11:38:04.020Z,10.60
2023-03-28T11:40:37.581Z,10.60
2023-03-28T11:43:07.583Z,10.60
2023-03-28T11:45:51.376Z,10.60
2023-03-28T11:48:26.208Z,10.60
2023-03-28T11:51:04.227Z,10.60
2023-03-28T11:53:37.669Z,10.60
2023-03-28T11:56:13.014Z,10.60
2023-03-28T11:58:44.818Z,10.60
2023-03-28T12:01:18.296Z,10.60
2023-03-28T12:03:56.767Z,10.60
2023-03-28T12:06:31.628Z,10.70
2023-03-28T12:09:05.914Z,10.80
2023-03-28T12:11:40.357Z,10.90
2023-03-28T12:14:25.524Z,11.00
2023-03-28T12:16:56.843Z,11.00
2023-03-28T12:19:32.741Z,11.10
2023-03-28T12:22:09.260Z,11.20
2023-03-28T12:24:46.917Z,11.20
2023-03-28T12:27:25.493Z,11.30
2023-03-28T12:29:59.248Z,11.40
2023-03-28T12:32:48.338Z,11.40
2023-03-28T12:35:22.640Z,11.40
2023-03-28T12:38:02.761Z,11.40
2023-03-28T12:40:48.277Z,11.40
2023-03-28T12:43:19.313Z,11.40
2023-03-28T12:45:53.059Z,11.40
2023-03-28T12:48:32.537Z,11.40
2023-03-28T12:51:06.133Z,11.40
2023-03-28T12:53:34.927Z,11.40
2023-03-28T12:56:04.501Z,11.40
2023-03-28T12:58:36.923Z,11.40
2023-03-28T13:01:35.219Z,11.40
2023-03-28T13:04:18.852Z,11.50
2023-03-28T13:06:58.467Z,11.50
2023-03-28T13:09:54.897Z,11.60
2023-03-28T13:12:31.471Z,11.60
2023-03-28T13:15:02.398Z,11.60
2023-03-28T13:17:33.032Z,11.60
2023-03-28T13:20:25.962Z,11.60
2023-03-28T13:22:58.429Z,11.60
2023-03-28T13:25:29.813Z,11.60
2023-03-28T13:28:00.775Z,11.60
2023-03-28T13:30:31.007Z,11.70
2023-03-28T13:33:02.280Z,11.70
2023-03-28T13:35:46.905Z,11.70
2023-03-28T13:38:25.945Z,11.80
2023-03-28T13:40:56.184Z,11.80
2023-03-28T13:43:26.881Z,11.80
2023-03-28T13:45:59.028Z,11.90
2023-03-28T13:48:33.657Z,11.90
2023-03-28T13:51:07.493Z,11.90
2023-03-28T13:53:46.861Z,11.90
2023-03-28T13:56:24.387Z,11.90
2023-03-28T13:58:55.381Z,11.90
2023-03-28T14:01:25.848Z,11.90
2023-03-28T14:03:55.921Z,11.90
2023-03-28T14:06:27.848Z,12.00
2023-03-28T14:08:57.030Z,12.00
2023-03-28T14:11:30.570Z,12.00
2023-03-28T14:14:09.696Z,12.10
2023-03-28T14:16:38.708Z,12.00
2023-03-28T14:19:09.115Z,12.00
2023-03-28T14:21:39.227Z,12.00
2023-03-28T14:24:09.074Z,12.00
2023-03-28T14:26:38.530Z,12.00
2023-03-28T14:29:12.042Z,12.00
2023-03-28T14:31:46.151Z,12.00
2023-03-28T14:34:18.108Z,12.00
2023-03-28T14:37:01.666Z,12.00
2023-03-28T14:39:32.284Z,12.00
2023-03-28T14:42:03.867Z,11.90
2023-03-28T14:44:36.270Z,11.90
2023-03-28T14:47:04.993Z,11.90
2023-03-28T14:49:34.478Z,11.80
2023-03-28T14:52:04.258Z,11.80
2023-03-28T14:54:34.897Z,11.70
2023-03-28T14:57:05.991Z,11.70
2023-03-28T14:59:38.097Z,11.60
2023-03-28T15:02:07.685Z,11.60
2023-03-28T15:04:36.785Z,11.60
2023-03-28T15:07:09.020Z,11.50
2023-03-28T15:09:37.417Z,11.50
2023-03-28T15:12:09.208Z,11.50
2023-03-28T15:14:41.289Z,11.50
2023-03-28T15:17:17.108Z,11.40
2023-03-28T15:19:47.586Z,11.40
2023-03-28T15:22:23.144Z,11.40
2023-03-28T15:24:51.763Z,11.30
2023-03-28T15:27:27.024Z,11.30
2023-03-28T15:29:56.036Z,11.30
2023-03-28T15:32:24.577Z,11.30
2023-03-28T15:34:58.660Z,11.30
2023-03-28T15:37:28.562Z,11.30
2023-03-28T15:40:20.061Z,11.30
2023-03-28T15:42:53.067Z,11.40
2023-03-28T15:45:39.000Z,11.40
2023-03-28T15:48:07.684Z,11.40
2023-03-28T15:50:38.651Z,11.40
2023-03-28T15:53:14.852Z,11.40
2023-03-28T15:55:44.492Z,11.40
2023-03-28T15:58:15.740Z,11.40
2023-03-28T16:00:46.608Z,11.40
2023-03-28T16:03:36.802Z,11.30
2023-03-28T16:06:30.990Z,11.30
2023-03-28T16:09:15.914Z,11.30
2023-03-28T16:11:45.240Z,11.30
2023-03-28T16:14:17.274Z,11.30
2023-03-28T16:16:45.574Z,11.30
2023-03-28T16:19:20.315Z,11.30
2023-03-28T16:21:48.935Z,11.20
2023-03-28T16:24:19.800Z,11.20
2023-03-28T16:26:48.923Z,11.20
2023-03-28T16:29:17.121Z,11.20
2023-03-28T16:31:45.459Z,11.10
2023-03-28T16:34:13.755Z,11.10
2023-03-28T16:36:42.013Z,11.10
2023-03-28T16:39:11.553Z,11.10
2023-03-28T16:41:41.121Z,11.10
2023-03-28T16:44:09.440Z,11.10
2023-03-28T16:46:37.637Z,11.10
2023-03-28T16:49:05.908Z,11.00
2023-03-28T16:51:34.064Z,11.00
2023-03-28T16:54:02.384Z,11.00
2023-03-28T16:56:30.571Z,11.00
2023-03-28T16:59:00.315Z,11.00
2023-03-28T17:01:28.591Z,11.00
2023-03-28T17:03:56.780Z,10.90
2023-03-28T17:06:25.615Z,10.90
2023-03-28T17:08:54.559Z,10.90
2023-03-28T17:11:23.368Z,10.90
2023-03-28T17:13:54.512Z,10.80
2023-03-28T17:16:24.950Z,10.80
2023-03-28T17:18:53.742Z,10.80
2023-03-28T17:21:22.247Z,10.70
2023-03-28T17:23:52.763Z,10.70
2023-03-28T17:26:21.028Z,10.70
2023-03-28T17:28:50.901Z,10.70
2023-03-28T17:31:21.725Z,10.60
2023-03-28T17:33:51.896Z,10.60
2023-03-28T17:36:22.479Z,10.60
2023-03-28T17:38:51.665Z,10.50
2023-03-28T17:41:19.915Z,10.50
2023-03-28T17:43:48.046Z,10.40
2023-03-28T17:46:17.116Z,10.40
2023-03-28T17:48:45.813Z,10.40
2023-03-28T17:51:15.926Z,10.30
2023-03-28T17:53:46.909Z,10.30
2023-03-28T17:56:15.824Z,10.30
2023-03-28T17:58:44.387Z,10.30
2023-03-28T18:01:14.785Z,10.30
2023-03-28T18:03:44.146Z,10.20
2023-03-28T18:06:12.975Z,10.20
2023-03-28T18:08:44.809Z,10.20
2023-03-28T18:11:14.731Z,10.20
2023-03-28T18:13:43.434Z,10.20
2023-03-28T18:16:14.930Z,10.20
2023-03-28T18:18:43.188Z,10.20
2023-03-28T18:21:12.717Z,10.20
2023-03-28T18:23:42.561Z,10.20
2023-03-28T18:26:11.992Z,10.20
2023-03-28T18:28:40.469Z,10.30
2023-03-28T18:31:09.833Z,10.20
2023-03-28T18:33:38.322Z,10.20
2023-03-28T18:36:07.515Z,10.20
2023-03-28T18:38:39.725Z,10.20
2023-03-28T18:41:09.892Z,10.20
2023-03-28T18:43:38.411Z,10.20
2023-03-28T18:46:08.269Z,10.20
2023-03-28T18:48:36.898Z,10.20
2023-03-28T18:51:06.515Z,10.20
2023-03-28T18:53:35.118Z,10.30
2023-03-28T18:56:03.465Z,10.30
2023-03-28T18:58:33.269Z,10.30
2023-03-28T19:01:03.675Z,10.30
2023-03-28T19:03:36.262Z,10.30
2023-03-28T19:06:04.924Z,10.30
2023-03-28T19:08:33.153Z,10.30
2023-03-28T19:11:07.427Z,10.30
2023-03-28T19:13:37.152Z,10.30
2023-03-28T19:16:07.919Z,10.30
2023-03-28T19:18:38.716Z,10.30
2023-03-28T19:21:07.909Z,10.30
2023-03-28T19:23:36.959Z,10.30
2023-03-28T19:26:06.822Z,10.20
2023-03-28T19:28:37.319Z,10.20
2023-03-28T19:31:07.456Z,10.20
2023-03-28T19:33:37.350Z,10.20
2023-03-28T19:36:06.947Z,10.20
2023-03-28T19:38:36.812Z,10.20
2023-03-28T19:41:10.374Z,10.20
2023-03-28T19:43:40.887Z,10.20
2023-03-28T19:46:12.014Z,10.20
2023-03-28T19:48:41.458Z,10.20
2023-03-28T19:51:09.813Z,10.20
2023-03-28T19:53:38.089Z,10.20
2023-03-28T19:56:07.102Z,10.20
2023-03-28T19:58:35.295Z,10.20
2023-03-28T20:01:05.089Z,10.20
2023-03-28T20:03:33.562Z,10.20
2023-03-28T20:06:05.636Z,10.20
2023-03-28T20:08:34.380Z,10.20
2023-03-28T20:11:03.679Z,10.20
2023-03-28T20:13:32.182Z,10.20
2023-03-28T20:16:04.670Z,10.10
2023-03-28T20:18:33.728Z,10.10
2023-03-28T20:21:03.560Z,10.10
2023-03-28T20:23:33.541Z,10.10
2023-03-28T20:26:14.177Z,10.10
2023-03-28T20:28:42.550Z,10.10
2023-03-28T20:31:15.169Z,10.10
2023-03-28T20:33:43.818Z,10.00
2023-03-28T20:36:12.283Z,10.00
2023-03-28T20:38:40.876Z,10.00
2023-03-28T20:41:12.512Z,10.00
2023-03-28T20:43:47.403Z,10.00
2023-03-28T20:46:19.596Z,9.90
2023-03-28T20:48:52.263Z,10.00
2023-03-28T20:51:22.889Z,9.90
2023-03-28T20:53:54.731Z,10.00
2023-03-28T20:56:24.105Z,10.00
2023-03-28T20:58:53.369Z,10.00
2023-03-28T21:01:26.383Z,10.00
2023-03-28T21:03:58.797Z,10.00
2023-03-28T21:06:30.429Z,10.00
2023-03-28T21:09:00.830Z,10.10
2023-03-28T21:11:31.380Z,10.10
2023-03-28T21:14:01.106Z,10.10
2023-03-28T21:16:32.614Z,10.10
2023-03-28T21:19:01.677Z,10.10
2023-03-28T21:21:33.082Z,10.10
2023-03-28T21:24:02.188Z,10.10
2023-03-28T21:26:31.292Z,10.10
2023-03-28T21:28:59.678Z,10.10
2023-03-28T21:31:30.832Z,10.10
2023-03-28T21:33:59.904Z,10.20
2023-03-28T21:36:28.764Z,10.20
2023-03-28T21:38:58.195Z,10.20
2023-03-28T21:41:27.502Z,10.20
2023-03-28T21:43:56.088Z,10.20
2023-03-28T21:46:24.475Z,10.20
2023-03-28T21:48:54.131Z,10.30
2023-03-28T21:51:22.336Z,10.30
2023-03-28T21:53:50.837Z,10.30
2023-03-28T21:56:18.996Z,10.30
2023-03-28T21:58:47.228Z,10.30
2023-03-28T22:01:17.658Z,10.30
2023-03-28T22:03:46.781Z,10.30
2023-03-28T22:06:17.731Z,10.30
2023-03-28T22:08:51.872Z,10.30
2023-03-28T22:11:27.991Z,10.40
2023-03-28T22:14:01.499Z,10.40
2023-03-28T22:16:35.065Z,10.40
2023-03-28T22:19:03.482Z,10.40
2023-03-28T22:21:33.402Z,10.40
2023-03-28T22:24:04.379Z,10.40
2023-03-28T22:26:32.609Z,10.30
2023-03-28T22:29:00.813Z,10.30
2023-03-28T22:31:29.583Z,10.30
2023-03-28T22:33:57.891Z,10.30
2023-03-28T22:36:26.356Z,10.30
2023-03-28T22:38:57.175Z,10.30
2023-03-28T22:41:25.530Z,10.30
2023-03-28T22:43:53.770Z,10.30
2023-03-28T22:46:22.260Z,10.30
2023-03-28T22:48:54.292Z,10.30
2023-03-28T22:51:27.741Z,10.30
2023-03-28T22:54:01.802Z,10.30
2023-03-28T22:56:30.680Z,10.30
2023-03-28T22:59:01.223Z,10.30
2023-03-28T23:01:30.035Z,10.30
2023-03-28T23:03:58.519Z,10.30
2023-03-28T23:06:27.175Z,10.30
2023-03-28T23:08:55.412Z,10.30
2023-03-28T23:11:24.982Z,10.30
2023-03-28T23:13:53.278Z,10.30
2023-03-28T23:16:21.604Z,10.20
2023-03-28T23:18:50.842Z,10.30
2023-03-28T23:21:19.370Z,10.30
2023-03-28T23:23:47.672Z,10.20
2023-03-28T23:26:15.844Z,10.20
2023-03-28T23:28:45.752Z,10.20
2023-03-28T23:31:14.093Z,10.20
2023-03-28T23:33:44.294Z,10.20
2023-03-28T23:36:14.138Z,10.20
2023-03-28T23:38:43.489Z,10.20
2023-03-28T23:41:11.723Z,10.20
2023-03-28T23:43:39.998Z,10.20
2023-03-28T23:46:09.724Z,10.10
2023-03-28T23:48:37.954Z,10.10
2023-03-28T23:51:06.738Z,10.10
2023-03-28T23:53:35.029Z,10.10
2023-03-28T23:56:03.924Z,10.10
2023-03-28T23:58:32.099Z,10.10
